createdAt,value
2022-08-21T00:00:44.202Z,7.97
2022-08-21T00:03:14.911Z,7.53
2022-08-21T00:05:50.716Z,8.93
2022-08-21T00:08:22.858Z,6.90
2022-08-21T00:10:53.206Z,6.32
2022-08-21T00:13:22.471Z,5.72
2022-08-21T00:15:52.562Z,5.65
2022-08-21T00:18:22.464Z,4.68
2022-08-21T00:20:51.719Z,5.38
2022-08-21T00:23:22.591Z,4.55
2022-08-21T00:25:52.123Z,4.63
2022-08-21T00:28:21.290Z,4.60
2022-08-21T00:30:50.544Z,4.70
2022-08-21T00:33:19.784Z,4.30
2022-08-21T00:35:48.990Z,4.10
2022-08-21T00:38:18.164Z,3.95
2022-08-21T00:40:53.251Z,3.60
2022-08-21T00:43:26.159Z,2.85
2022-08-21T00:45:56.329Z,2.35
2022-08-21T00:48:28.264Z,2.78
2022-08-21T00:51:02.157Z,2.80
2022-08-21T00:53:33.088Z,2.75
2022-08-21T00:56:06.895Z,1.70
2022-08-21T00:58:38.031Z,2.80
2022-08-21T01:01:09.083Z,2.70
2022-08-21T01:03:39.672Z,3.00
2022-08-21T01:06:15.336Z,2.67
2022-08-21T01:08:46.922Z,3.80
2022-08-21T01:11:18.636Z,2.53
2022-08-21T01:13:48.357Z,2.00
2022-08-21T01:16:22.184Z,2.03
2022-08-21T01:18:52.473Z,1.88
2022-08-21T01:21:28.477Z,1.70
2022-08-21T01:23:59.751Z,2.42
2022-08-21T01:26:35.583Z,2.10
2022-08-21T01:29:13.754Z,1.42
2022-08-21T01:31:43.037Z,1.70
2022-08-21T01:34:13.362Z,1.60
2022-08-21T01:36:44.216Z,1.40
2022-08-21T01:39:14.108Z,1.40
2022-08-21T01:41:43.701Z,1.70
2022-08-21T01:44:13.009Z,1.45
2022-08-21T01:46:42.322Z,1.50
2022-08-21T01:49:11.498Z,2.10
2022-08-21T01:51:40.726Z,1.95
2022-08-21T01:54:11.539Z,1.70
2022-08-21T01:56:44.867Z,2.20
2022-08-21T01:59:14.683Z,2.38
2022-08-21T02:01:44.234Z,2.20
2022-08-21T02:04:13.752Z,2.20
2022-08-21T02:06:43.540Z,2.22
2022-08-21T02:09:15.660Z,2.65
2022-08-21T02:11:45.838Z,2.80
2022-08-21T02:14:32.437Z,3.42
2022-08-21T02:17:05.475Z,4.35
2022-08-21T02:19:41.040Z,3.90
2022-08-21T02:22:11.489Z,3.83
2022-08-21T02:24:53.604Z,4.68
2022-08-21T02:27:26.524Z,4.15
2022-08-21T02:29:58.239Z,4.43
2022-08-21T02:32:28.079Z,3.80
2022-08-21T02:34:57.698Z,4.00
2022-08-21T02:37:27.156Z,3.90
2022-08-21T02:39:57.871Z,3.65
2022-08-21T02:42:27.121Z,3.38
2022-08-21T02:44:56.406Z,3.30
2022-08-21T02:47:25.622Z,3.55
2022-08-21T02:49:55.413Z,2.38
2022-08-21T02:52:25.169Z,2.30
2022-08-21T02:54:54.431Z,2.00
2022-08-21T02:57:25.049Z,1.80
2022-08-21T02:59:54.209Z,1.67
2022-08-21T03:02:23.695Z,1.55
2022-08-21T03:04:55.970Z,2.00
2022-08-21T03:07:26.348Z,1.90
2022-08-21T03:09:56.156Z,2.20
2022-08-21T03:12:28.500Z,1.80
2022-08-21T03:14:59.836Z,2.30
2022-08-21T03:17:29.847Z,2.70
2022-08-21T03:19:59.924Z,3.10
2022-08-21T03:22:30.851Z,2.78
2022-08-21T03:25:00.745Z,2.80
2022-08-21T03:27:37.577Z,2.80
2022-08-21T03:30:11.199Z,2.90
2022-08-21T03:32:41.119Z,2.45
2022-08-21T03:35:11.598Z,2.90
2022-08-21T03:37:41.159Z,2.53
2022-08-21T03:40:12.954Z,2.50
2022-08-21T03:42:43.764Z,2.58
2022-08-21T03:45:13.212Z,2.63
2022-08-21T03:47:54.832Z,2.50
2022-08-21T03:50:24.684Z,2.65
2022-08-21T03:52:54.126Z,3.38
2022-08-21T03:55:23.488Z,3.03
2022-08-21T03:57:54.222Z,3.38
2022-08-21T04:00:24.695Z,3.47
2022-08-21T04:02:54.318Z,3.83
2022-08-21T04:05:29.157Z,3.40
2022-08-21T04:08:01.505Z,4.50
2022-08-21T04:10:33.241Z,3.90
2022-08-21T04:13:05.122Z,3.88
2022-08-21T04:15:34.455Z,3.88
2022-08-21T04:18:05.149Z,4.38
2022-08-21T04:20:34.525Z,3.95
2022-08-21T04:23:04.471Z,4.00
2022-08-21T04:25:34.040Z,2.95
2022-08-21T04:28:05.558Z,3.20
2022-08-21T04:30:35.299Z,2.58
2022-08-21T04:33:04.978Z,2.58
2022-08-21T04:35:34.436Z,2.75
2022-08-21T04:38:03.634Z,2.95
2022-08-21T04:40:32.955Z,2.90
2022-08-21T04:43:09.358Z,3.30
2022-08-21T04:45:42.026Z,2.90
2022-08-21T04:48:14.441Z,2.72
2022-08-21T04:50:48.587Z,2.50
2022-08-21T04:53:24.543Z,3.42
2022-08-21T04:55:55.898Z,3.78
2022-08-21T04:58:29.197Z,4.00
2022-08-21T05:01:01.967Z,4.60
2022-08-21T05:03:32.900Z,4.72
2022-08-21T05:06:02.459Z,4.35
2022-08-21T05:08:31.735Z,3.38
2022-08-21T05:11:00.940Z,3.45
2022-08-21T05:13:32.909Z,3.20
2022-08-21T05:16:02.244Z,2.72
2022-08-21T05:18:31.591Z,2.38
2022-08-21T05:21:01.191Z,2.28
2022-08-21T05:23:30.372Z,2.70
2022-08-21T05:25:59.611Z,3.28
2022-08-21T05:28:28.994Z,4.53
2022-08-21T05:31:00.575Z,5.03
2022-08-21T05:33:29.867Z,4.47
2022-08-21T05:35:59.072Z,3.78
2022-08-21T05:38:29.637Z,3.85
2022-08-21T05:40:58.917Z,3.92
2022-08-21T05:43:28.421Z,3.78
2022-08-21T05:45:59.043Z,3.92
2022-08-21T05:48:28.273Z,3.10
2022-08-21T05:50:57.592Z,3.50
2022-08-21T05:53:27.575Z,3.15
2022-08-21T05:55:56.774Z,2.80
2022-08-21T05:58:26.066Z,3.40
2022-08-21T06:00:55.241Z,3.33
2022-08-21T06:03:28.687Z,3.28
2022-08-21T06:05:58.042Z,3.30
2022-08-21T06:08:28.195Z,2.95
2022-08-21T06:11:00.916Z,2.45
2022-08-21T06:13:31.186Z,3.25
2022-08-21T06:16:10.702Z,2.53
2022-08-21T06:18:42.283Z,2.28
2022-08-21T06:21:12.487Z,2.80
2022-08-21T06:23:42.516Z,2.60
2022-08-21T06:26:13.627Z,2.65
2022-08-21T06:28:44.008Z,2.45
2022-08-21T06:31:16.484Z,2.60
2022-08-21T06:33:47.369Z,2.33
2022-08-21T06:40:49.049Z,2.95
2022-08-21T06:43:19.890Z,2.55
2022-08-21T06:45:49.058Z,2.53
2022-08-21T06:48:19.527Z,2.40
2022-08-21T06:50:50.762Z,2.50
2022-08-21T06:53:22.247Z,2.90
2022-08-21T06:55:51.282Z,2.72
2022-08-21T06:58:24.498Z,2.30
2022-08-21T07:00:57.523Z,2.40
2022-08-21T07:03:33.218Z,2.40
2022-08-21T07:06:04.122Z,2.10
2022-08-21T07:08:33.211Z,2.30
2022-08-21T07:11:09.642Z,2.08
2022-08-21T07:13:39.093Z,2.00
2022-08-21T07:16:09.297Z,1.88
2022-08-21T07:18:41.539Z,1.50
2022-08-21T07:21:12.098Z,1.70
2022-08-21T07:23:58.341Z,1.65
2022-08-21T07:27:49.691Z,1.50
2022-08-21T07:33:46.992Z,1.25
2022-08-21T07:36:18.426Z,1.40
2022-08-21T07:38:47.649Z,1.50
2022-08-21T07:41:20.092Z,1.00
2022-08-21T07:43:49.410Z,1.10
2022-08-21T07:46:22.745Z,1.52
2022-08-21T07:48:53.628Z,0.85
2022-08-21T07:51:30.137Z,0.98
2022-08-21T07:54:34.425Z,0.82
2022-08-21T07:57:04.277Z,1.05
2022-08-21T07:59:33.400Z,1.00
2022-08-21T08:02:02.673Z,1.10
2022-08-21T08:04:33.425Z,1.13
2022-08-21T08:07:30.536Z,1.00
2022-08-21T08:10:00.151Z,0.90
2022-08-21T08:12:30.575Z,1.35
2022-08-21T08:15:00.387Z,0.98
2022-08-21T08:17:30.612Z,1.20
2022-08-21T08:20:00.673Z,1.27
2022-08-21T08:23:00.113Z,1.20
2022-08-21T08:25:36.328Z,1.20
2022-08-21T08:28:16.561Z,1.27
2022-08-21T08:30:48.582Z,1.20
2022-08-21T08:33:19.441Z,0.98
2022-08-21T08:35:52.875Z,1.30
2022-08-21T08:41:39.308Z,1.20
2022-08-21T08:44:14.794Z,1.50
2022-08-21T08:47:01.104Z,1.17
2022-08-21T08:49:59.496Z,1.10
2022-08-21T08:52:32.921Z,1.45
2022-08-21T08:55:09.906Z,1.38
2022-08-21T08:57:52.328Z,1.02
2022-08-21T09:00:25.202Z,1.17
2022-08-21T09:02:59.820Z,1.42
2022-08-21T09:05:35.609Z,1.20
2022-08-21T09:08:27.761Z,1.15
2022-08-21T09:11:05.731Z,1.20
2022-08-21T09:13:48.247Z,1.10
2022-08-21T09:16:32.212Z,1.20
2022-08-21T09:19:12.356Z,1.08
2022-08-21T09:22:41.668Z,1.00
2022-08-21T09:25:23.261Z,0.40
2022-08-21T09:28:00.583Z,0.22
2022-08-21T09:30:33.168Z,0.40
2022-08-21T09:33:02.372Z,0.20
2022-08-21T09:35:32.943Z,0.22
2022-08-21T09:38:08.753Z,0.30
2022-08-21T09:40:43.578Z,0.40
2022-08-21T09:43:22.026Z,0.20
2022-08-21T09:46:03.839Z,0.40
2022-08-21T09:48:49.047Z,0.30
2022-08-21T09:51:21.215Z,0.30
2022-08-21T09:53:56.997Z,0.40
2022-08-21T09:56:51.671Z,0.40
2022-08-21T09:59:36.786Z,0.40
2022-08-21T10:02:30.492Z,0.30
2022-08-21T10:05:17.564Z,0.40
2022-08-21T10:07:48.731Z,0.50
2022-08-21T10:10:21.682Z,0.30
2022-08-21T10:13:00.010Z,0.30
2022-08-21T10:15:42.997Z,0.52
2022-08-21T10:18:22.431Z,0.40
2022-08-21T10:22:01.938Z,0.40
2022-08-21T10:24:51.454Z,0.50
2022-08-21T10:28:01.009Z,0.52
2022-08-21T10:31:02.416Z,0.63
2022-08-21T10:33:43.381Z,0.50
2022-08-21T10:36:21.335Z,0.77
2022-08-21T10:39:26.759Z,0.52
2022-08-21T10:42:27.938Z,0.50
2022-08-21T10:45:23.701Z,0.80
2022-08-21T10:47:59.282Z,0.70
2022-08-21T10:50:37.274Z,0.38
2022-08-21T10:53:32.999Z,0.50
2022-08-21T10:56:19.343Z,0.30
2022-08-21T10:59:02.177Z,0.90
2022-08-21T11:01:49.093Z,0.52
2022-08-21T11:04:32.129Z,0.30
2022-08-21T11:09:52.642Z,0.57
2022-08-21T11:12:35.515Z,0.40
2022-08-21T11:15:27.044Z,0.50
2022-08-21T11:18:16.715Z,0.60
2022-08-21T11:20:58.971Z,0.95
2022-08-21T11:23:42.010Z,0.30
2022-08-21T11:26:17.903Z,0.40
2022-08-21T11:28:54.050Z,0.50
2022-08-21T11:31:42.973Z,0.50
2022-08-21T11:34:31.978Z,0.25
2022-08-21T11:37:12.604Z,0.43
2022-08-21T11:39:56.095Z,0.20
2022-08-21T11:42:35.322Z,0.30
2022-08-21T11:45:24.448Z,0.20
2022-08-21T11:48:09.705Z,0.30
2022-08-21T11:50:54.158Z,0.20
2022-08-21T11:53:38.648Z,0.30
2022-08-21T11:56:30.023Z,0.20
2022-08-21T11:59:10.575Z,0.20
2022-08-21T12:01:44.097Z,0.40
2022-08-21T12:04:27.402Z,0.80
2022-08-21T12:06:59.339Z,1.13
2022-08-21T12:09:37.765Z,0.38
2022-08-21T12:12:15.299Z,0.35
2022-08-21T12:14:47.290Z,0.10
2022-08-21T12:17:26.204Z,0.20
2022-08-21T12:20:26.154Z,0.20
2022-08-21T12:23:05.227Z,0.40
2022-08-21T12:25:45.032Z,0.20
2022-08-21T12:28:23.439Z,0.47
2022-08-21T12:31:21.186Z,0.10
2022-08-21T12:34:00.392Z,0.30
2022-08-21T12:36:44.384Z,0.30
2022-08-21T12:39:20.527Z,0.17
2022-08-21T12:42:01.235Z,0.30
2022-08-21T12:44:41.141Z,0.10
2022-08-21T12:47:23.838Z,0.20
2022-08-21T12:50:01.177Z,0.25
2022-08-21T12:55:27.216Z,0.15
2022-08-21T12:58:00.161Z,0.15
2022-08-21T13:00:31.639Z,0.10
2022-08-21T13:03:32.294Z,0.30
2022-08-21T13:06:01.534Z,0.20
2022-08-21T13:08:31.716Z,0.20
2022-08-21T13:11:14.876Z,0.10
2022-08-21T13:13:53.914Z,0.20
2022-08-21T13:16:28.406Z,0.30
2022-08-21T13:19:03.387Z,0.22
2022-08-21T13:21:36.377Z,0.30
2022-08-21T13:24:42.402Z,0.20
2022-08-21T13:27:21.369Z,0.20
2022-08-21T13:30:09.804Z,0.15
2022-08-21T13:32:47.150Z,0.60
2022-08-21T13:35:20.478Z,0.20
2022-08-21T13:37:53.004Z,0.20
2022-08-21T13:40:28.926Z,0.32
2022-08-21T13:42:59.390Z,0.20
2022-08-21T13:45:35.188Z,0.20
2022-08-21T13:48:06.843Z,0.20
2022-08-21T13:50:40.136Z,0.30
2022-08-21T13:53:26.103Z,0.22
2022-08-21T13:56:00.341Z,0.20
2022-08-21T13:58:32.885Z,0.15
2022-08-21T14:01:06.562Z,0.20
2022-08-21T14:03:40.880Z,0.35
2022-08-21T14:06:17.372Z,0.20
2022-08-21T14:08:53.758Z,0.43
2022-08-21T14:11:23.672Z,0.30
2022-08-21T14:14:01.349Z,0.30
2022-08-21T14:16:45.904Z,0.20
2022-08-21T14:19:23.208Z,0.30
2022-08-21T14:24:31.233Z,0.20
2022-08-21T14:27:06.659Z,0.30
2022-08-21T14:29:39.746Z,0.35
2022-08-21T14:32:24.700Z,0.30
2022-08-21T14:34:55.504Z,0.32
2022-08-21T14:37:28.771Z,0.40
2022-08-21T14:39:58.192Z,0.20
2022-08-21T14:42:28.449Z,0.20
2022-08-21T14:45:10.641Z,0.47
2022-08-21T14:47:41.539Z,0.38
2022-08-21T14:50:11.896Z,0.40
2022-08-21T14:52:42.234Z,0.70
2022-08-21T14:55:14.895Z,0.45
2022-08-21T14:57:47.126Z,0.70
2022-08-21T15:00:20.502Z,0.95
2022-08-21T15:02:51.329Z,0.47
2022-08-21T15:05:31.442Z,0.70
2022-08-21T15:08:02.756Z,1.00
2022-08-21T15:10:34.951Z,0.77
2022-08-21T15:13:05.521Z,0.95
2022-08-21T15:15:41.650Z,0.90
2022-08-21T15:18:12.432Z,1.40
2022-08-21T15:20:43.061Z,1.30
2022-08-21T15:23:18.103Z,1.20
2022-08-21T15:25:50.321Z,1.60
2022-08-21T15:28:21.422Z,1.58
2022-08-21T15:30:52.238Z,1.70
2022-08-21T15:33:23.845Z,2.53
2022-08-21T15:35:53.550Z,1.70
2022-08-21T15:38:24.948Z,1.80
2022-08-21T15:41:01.127Z,1.95
2022-08-21T15:43:35.370Z,1.45
2022-08-21T15:46:06.233Z,1.60
2022-08-21T15:48:37.421Z,1.98
2022-08-21T15:51:07.626Z,1.50
2022-08-21T15:53:39.680Z,2.08
2022-08-21T15:56:22.254Z,1.88
2022-08-21T15:58:58.546Z,1.80
2022-08-21T16:01:28.349Z,1.88
2022-08-21T16:04:08.358Z,2.03
2022-08-21T16:06:53.462Z,2.00
2022-08-21T16:09:25.452Z,2.15
2022-08-21T16:11:54.809Z,2.13
2022-08-21T16:14:24.168Z,2.15
2022-08-21T16:16:58.128Z,1.92
2022-08-21T16:19:30.861Z,2.20
2022-08-21T16:22:01.099Z,2.08
2022-08-21T16:24:30.805Z,2.10
2022-08-21T16:27:13.686Z,2.50
2022-08-21T16:29:57.660Z,2.22
2022-08-21T16:32:29.535Z,2.30
2022-08-21T16:35:00.814Z,2.40
2022-08-21T16:37:30.680Z,2.33
2022-08-21T16:40:01.371Z,2.10
2022-08-21T16:42:34.591Z,2.40
2022-08-21T16:45:05.527Z,2.40
2022-08-21T16:47:34.981Z,2.65
2022-08-21T16:50:10.248Z,2.00
2022-08-21T16:52:48.003Z,2.45
2022-08-21T16:55:19.393Z,2.55
2022-08-21T16:57:48.876Z,2.35
2022-08-21T17:00:18.697Z,2.75
2022-08-21T17:02:55.334Z,2.50
2022-08-21T17:05:26.177Z,2.40
2022-08-21T17:07:55.468Z,2.30
2022-08-21T17:10:24.776Z,2.20
2022-08-21T17:12:58.756Z,2.28
2022-08-21T17:15:33.151Z,2.40
2022-08-21T17:18:03.257Z,2.97
2022-08-21T17:20:35.218Z,2.50
2022-08-21T17:23:05.480Z,2.45
2022-08-21T17:25:35.487Z,2.35
2022-08-21T17:28:06.169Z,2.13
2022-08-21T17:30:35.890Z,2.28
2022-08-21T17:33:05.501Z,2.20
2022-08-21T17:35:36.154Z,2.65
2022-08-21T17:38:05.585Z,2.20
2022-08-21T17:40:37.250Z,1.90
2022-08-21T17:43:13.115Z,2.40
2022-08-21T17:45:44.562Z,2.00
2022-08-21T17:48:22.238Z,2.00
2022-08-21T17:50:56.331Z,2.50
2022-08-21T17:53:27.084Z,2.35
2022-08-21T17:56:23.859Z,1.98
2022-08-21T17:58:55.637Z,2.40
2022-08-21T18:01:27.085Z,2.10
2022-08-21T18:03:56.358Z,2.35
2022-08-21T18:06:27.337Z,2.00
2022-08-21T18:08:57.916Z,2.20
2022-08-21T18:11:31.577Z,2.30
2022-08-21T18:14:07.610Z,2.50
2022-08-21T18:16:43.674Z,2.07
2022-08-21T18:22:08.485Z,2.17
2022-08-21T18:24:46.580Z,2.20
2022-08-21T18:27:16.698Z,2.22
2022-08-21T18:29:47.826Z,2.42
2022-08-21T18:32:31.016Z,2.22
2022-08-21T18:35:05.534Z,2.42
2022-08-21T18:37:45.890Z,2.70
2022-08-21T18:40:37.967Z,2.40
2022-08-21T18:43:15.528Z,3.22
2022-08-21T18:45:45.233Z,2.88
2022-08-21T18:48:17.693Z,2.88
2022-08-21T18:50:48.774Z,2.60
2022-08-21T18:53:27.649Z,2.63
2022-08-21T18:56:04.806Z,2.70
2022-08-21T18:58:35.383Z,3.05
2022-08-21T19:01:04.980Z,2.65
2022-08-21T19:03:36.410Z,2.72
2022-08-21T19:06:09.780Z,2.83
2022-08-21T19:08:42.741Z,2.80
2022-08-21T19:11:12.020Z,2.60
2022-08-21T19:13:43.745Z,2.70
2022-08-21T19:16:13.075Z,2.70
2022-08-21T19:18:46.384Z,2.55
2022-08-21T19:21:16.487Z,2.95
2022-08-21T19:23:52.632Z,2.97
2022-08-21T19:26:24.342Z,3.28
2022-08-21T19:28:59.541Z,2.67
2022-08-21T19:31:33.561Z,2.65
2022-08-21T19:34:08.403Z,3.00
2022-08-21T19:36:39.950Z,2.67
2022-08-21T19:39:15.542Z,2.97
2022-08-21T19:41:51.225Z,2.92
2022-08-21T19:44:24.821Z,3.17
2022-08-21T19:46:58.167Z,2.90
2022-08-21T19:49:33.274Z,3.00
2022-08-21T19:52:12.951Z,2.95
2022-08-21T19:54:44.576Z,3.10
2022-08-21T19:57:15.454Z,2.95
2022-08-21T19:59:45.925Z,2.80
2022-08-21T20:02:23.207Z,2.90
2022-08-21T20:04:55.163Z,2.78
2022-08-21T20:07:27.771Z,3.13
2022-08-21T20:09:58.748Z,3.25
2022-08-21T20:12:29.630Z,2.90
2022-08-21T20:14:59.571Z,3.00
2022-08-21T20:17:33.319Z,3.10
2022-08-21T20:20:05.649Z,3.17
2022-08-21T20:22:36.580Z,3.00
2022-08-21T20:25:08.426Z,2.92
2022-08-21T20:27:43.164Z,2.97
2022-08-21T20:30:15.129Z,2.97
2022-08-21T20:32:48.701Z,3.10
2022-08-21T20:35:20.550Z,2.90
2022-08-21T20:37:58.977Z,3.33
2022-08-21T20:40:33.097Z,3.08
2022-08-21T20:43:03.859Z,3.55
2022-08-21T20:45:36.359Z,2.80
2022-08-21T20:48:12.165Z,2.80
2022-08-21T20:50:47.462Z,3.20
2022-08-21T20:53:25.111Z,2.85
2022-08-21T20:55:59.343Z,3.13
2022-08-21T20:58:37.382Z,2.92
2022-08-21T21:01:09.963Z,3.05
2022-08-21T21:03:45.184Z,2.88
2022-08-21T21:06:20.165Z,3.10
2022-08-21T21:08:55.774Z,3.05
2022-08-21T21:11:34.362Z,3.47
2022-08-21T21:14:15.665Z,3.75
2022-08-21T21:16:52.145Z,3.42
2022-08-21T21:19:30.173Z,3.53
2022-08-21T21:22:11.791Z,3.38
2022-08-21T21:24:53.394Z,3.40
2022-08-21T21:27:39.208Z,3.20
2022-08-21T21:30:14.474Z,3.15
2022-08-21T21:32:44.713Z,3.55
2022-08-21T21:35:32.582Z,3.13
2022-08-21T21:40:49.709Z,3.33
2022-08-21T21:43:33.831Z,3.47
2022-08-21T21:46:25.807Z,3.58
2022-08-21T21:49:28.604Z,3.72
2022-08-21T21:52:10.946Z,3.72
2022-08-21T21:55:03.771Z,3.88
2022-08-21T21:57:53.119Z,3.75
2022-08-21T22:00:29.613Z,3.83
2022-08-21T22:03:13.214Z,3.90
2022-08-21T22:05:57.537Z,4.15
2022-08-21T22:08:40.276Z,4.35
2022-08-21T22:11:29.317Z,4.10
2022-08-21T22:14:10.155Z,4.18
2022-08-21T22:16:42.484Z,3.70
2022-08-21T22:19:27.367Z,3.40
2022-08-21T22:22:04.802Z,3.80
2022-08-21T22:24:40.420Z,4.45
2022-08-21T22:27:16.988Z,3.65
2022-08-21T22:29:51.286Z,3.30
2022-08-21T22:32:30.806Z,3.95
2022-08-21T22:35:18.871Z,3.60
2022-08-21T22:37:51.328Z,3.83
2022-08-21T22:40:27.486Z,4.05
2022-08-21T22:43:07.359Z,3.70
2022-08-21T22:45:58.938Z,3.90
2022-08-21T22:48:36.207Z,4.30
2022-08-21T22:51:09.316Z,4.00
2022-08-21T22:53:44.568Z,3.70
2022-08-21T22:56:31.661Z,3.70
2022-08-21T22:59:06.035Z,3.65
2022-08-21T23:01:45.077Z,3.92
2022-08-21T23:04:25.791Z,4.00
2022-08-21T23:06:58.335Z,3.67
2022-08-21T23:09:36.786Z,3.80
2022-08-21T23:12:32.945Z,3.88
2022-08-21T23:15:09.816Z,3.60
2022-08-21T23:20:56.122Z,3.72
2022-08-21T23:23:28.848Z,4.05
2022-08-21T23:29:24.674Z,3.90
2022-08-21T23:32:13.642Z,4.30
2022-08-21T23:35:04.221Z,4.07
2022-08-21T23:37:51.969Z,4.82
2022-08-21T23:40:51.150Z,4.13
2022-08-21T23:43:37.523Z,4.47
2022-08-21T23:46:33.375Z,5.00
2022-08-21T23:49:17.849Z,4.32
2022-08-21T23:52:00.506Z,4.45
2022-08-21T23:54:44.765Z,4.40
2022-08-21T23:57:31.784Z,4.40
